Portada
METAR-TAF:

METAR-TAF

Aeropuertos :

Aeropuerto de Pescara-Abruzzo

Pescara, Italia

latitud: 42-26N, longitud: 014-12E, altitud: 10 m

Observación

El informe se hizo hace 42 minutos, a las 08:20 UTC
Viento 2 kt con dirección variable
Temperatura 9°C
Humedad 49%
Presión 1027 hPa
Visibilidad 10 km o más

METAR: LIBP 070820Z AUTO VRB02KT 9999 BKN035/// BKN100/// 09/M01 Q1027

Hora: 10:02 (09:02 UTC)

Pronóstico

El informe se hizo hace 4 horas y 2 minutos, a las 05:00 UTC
Pronóstico válido del 07 a las 06 UTC al 08 a las 06 UTC
Viento 5 kt con dirección variable
Visibilidad 10 km o más
Cielo nuboso a una altura de 5000 ft
Temporalmente
del 07 a las 20 UTC al 08 a las 06 UTC
Visibilidad: 4000 m
neblina

TAF: LIBP 070500Z 0706/0806 VRB05KT 9999 BKN050 TEMPO 0720/0806 4000 BR

Observaciones y pronósticos meteorológicos de más de 4000 aeropuertos (mensajes METAR y TAF).

Los puntos amarillos y rojos representan las estaciones disponibles.

Ponga el ratón en el punto deseado para ver el nombre de la estación.

Haga clic para ver las observaciones y los pronósticos meteorológicos.

Para cambiar el mapa : haga clic en los botones verdes con una cruz de color negro para hacer un zoom, en el botón verde con un guión para alejar o en las flechas verdes para mapas adyacentes.


METAR-TAF: